Time;durP1;ratioP1;P1;durP2;ratioP2;P2;SDS_P1;SDS_P2;PMS_P1;PMS_P2;Temp;Humidity;BMP_temperature;BMP_pressure;BME280_temperature;BME280_humidity;BME280_pressure;Samples;Min_cycle;Max_cycle;Signal;HPM_P1;HPM_P2
2023/01/12 00:02:20;;;;;;;7.93;0.55;;;9.00;99.90;;;;;;4979018;28;20038;-78
2023/01/12 00:04:48;;;;;;;10.23;1.17;;;9.00;99.90;;;;;;4977462;28;20034;-78
2023/01/12 00:07:20;;;;;;;11.95;0.73;;;8.90;99.90;;;;;;4977260;28;20030;-79
2023/01/12 00:09:48;;;;;;;11.93;0.75;;;8.90;99.90;;;;;;4977703;28;20027;-78
2023/01/12 00:12:19;;;;;;;13.05;0.55;;;9.00;99.90;;;;;;4978482;28;20043;-78
2023/01/12 00:14:48;;;;;;;11.57;1.27;;;;;;;;;;4976948;28;20081;-78
2023/01/12 00:17:19;;;;;;;16.38;1.55;;;8.80;99.90;;;;;;4978363;28;20022;-78
2023/01/12 00:19:45;;;;;;;9.60;0.30;;;12.50;99.90;;;;;;4976898;28;20023;-78
2023/01/12 00:22:13;;;;;;;9.23;0.82;;;9.00;99.90;;;;;;4977141;28;20031;-78
2023/01/12 00:24:40;;;;;;;;;;;9.00;99.90;;;;;;4994104;28;20035;-78
2023/01/12 00:27:08;;;;;;;10.90;0.55;;;9.10;99.90;;;;;;4977908;28;19906;-78
2023/01/12 00:29:35;;;;;;;21.98;2.03;;;9.00;99.90;;;;;;4976493;28;20455;-78
2023/01/12 00:32:01;;;;;;;17.85;0.68;;;9.10;99.90;;;;;;4974886;28;20114;-77
2023/01/12 00:34:27;;;;;;;18.77;0.98;;;9.60;99.90;;;;;;4991829;28;20030;-78
2023/01/12 00:36:53;;;;;;;10.80;0.40;;;9.10;99.90;;;;;;4977174;28;20023;-78
2023/01/12 00:39:19;;;;;;;18.88;1.98;;;9.10;99.90;;;;;;4975846;28;20027;-78
2023/01/12 00:47:19;;;;;;;17.90;2.60;;;9.10;99.90;;;;;;4977154;28;20093;-78
2023/01/12 00:49:45;;;;;;;19.17;0.95;;;9.10;99.90;;;;;;4975801;28;20023;-78
2023/01/12 00:52:14;;;;;;;12.82;0.95;;;9.00;99.90;;;;;;4975355;28;20114;-78
2023/01/12 00:54:40;;;;;;;23.83;1.45;;;9.10;99.90;;;;;;4976562;28;20038;-78
2023/01/12 00:57:06;;;;;;;16.98;1.90;;;10.00;99.90;;;;;;4975716;28;20457;-77
2023/01/12 00:59:33;;;;;;;21.35;2.53;;;9.10;99.90;;;;;;4977375;28;20137;-78
2023/01/12 01:02:05;;;;;;;15.05;1.67;;;9.10;99.90;;;;;;4977368;28;20046;-78
2023/01/12 01:04:33;;;;;;;21.80;2.03;;;9.00;99.90;;;;;;4977313;28;20027;-78
2023/01/12 01:07:02;;;;;;;19.55;1.10;;;9.00;99.90;;;;;;4975676;28;20439;-78
2023/01/12 01:09:38;;;;;;;20.65;1.58;;;9.00;99.90;;;;;;4975031;28;20569;-77
2023/01/12 01:12:04;;;;;;;16.52;1.40;;;9.00;99.90;;;;;;4976386;28;20062;-78
2023/01/12 01:14:32;;;;;;;22.73;1.80;;;8.90;99.90;;;;;;4976689;28;20027;-78
2023/01/12 01:16:58;;;;;;;17.40;1.85;;;9.00;99.90;;;;;;4976015;28;20074;-78
2023/01/12 01:19:23;;;;;;;18.80;1.48;;;9.00;99.90;;;;;;4974672;28;20027;-77
2023/01/12 01:21:49;;;;;;;23.13;1.67;;;9.00;99.90;;;;;;4979093;28;20051;-78
2023/01/12 01:24:17;;;;;;;14.45;0.98;;;8.90;99.90;;;;;;4983145;28;20026;-79
2023/01/12 01:26:48;;;;;;;10.07;1.67;;;8.90;99.90;;;;;;4985816;28;20029;-78
2023/01/12 01:29:17;;;;;;;10.85;0.60;;;8.90;99.90;;;;;;4984596;28;20430;-79
2023/01/12 01:31:46;;;;;;;11.77;0.93;;;8.90;99.90;;;;;;4985276;28;20073;-78
2023/01/12 01:34:13;;;;;;;19.33;1.95;;;8.90;99.90;;;;;;4984410;28;20034;-79
2023/01/12 01:36:39;;;;;;;16.33;1.98;;;8.90;99.90;;;;;;4994264;28;20034;-77
2023/01/12 01:39:05;;;;;;;13.10;1.92;;;8.90;99.90;;;;;;4975265;28;20482;-78
2023/01/12 01:41:34;;;;;;;11.93;1.65;;;9.00;99.90;;;;;;4973893;28;20055;-77
2023/01/12 01:44:01;;;;;;;;;;;8.90;99.90;;;;;;4985355;28;20031;-78
2023/01/12 01:46:45;;;;;;;10.70;1.25;;;9.00;99.90;;;;;;4984616;28;19906;-78
2023/01/12 01:49:14;;;;;;;17.27;1.52;;;8.90;99.90;;;;;;4984601;28;20038;-79
2023/01/12 01:51:42;;;;;;;19.92;2.55;;;8.90;99.90;;;;;;4984532;28;20038;-78
2023/01/12 01:54:08;;;;;;;12.55;2.17;;;9.00;99.90;;;;;;4982957;28;20031;-79
2023/01/12 01:56:37;;;;;;;23.52;2.45;;;9.00;99.90;;;;;;4985946;28;20106;-78
2023/01/12 01:59:25;;;;;;;16.45;0.40;;;9.00;99.90;;;;;;4985135;28;20462;-79
2023/01/12 02:01:54;;;;;;;17.60;1.98;;;9.00;99.90;;;;;;5000237;28;20041;-79
2023/01/12 02:04:19;;;;;;;;;;;9.00;99.90;;;;;;4984415;28;20038;-79
2023/01/12 02:06:46;;;;;;;13.02;0.57;;;9.00;99.90;;;;;;4983893;28;20281;-79
2023/01/12 02:09:29;;;;;;;12.68;0.65;;;9.10;99.90;;;;;;4983482;28;20034;-79
2023/01/12 02:18:00;;;;;;;8.20;0.63;;;9.10;99.90;;;;;;4980537;28;20518;-78
2023/01/12 02:20:56;;;;;;;5.82;0.45;;;9.20;99.90;;;;;;4984059;28;20027;-79
2023/01/12 02:23:25;;;;;;;4.00;0.40;;;9.10;99.90;;;;;;4982250;28;20031;-78
2023/01/12 02:26:11;;;;;;;9.75;0.50;;;9.10;99.90;;;;;;4982953;28;20061;-79
2023/01/12 02:28:55;;;;;;;9.68;0.20;;;9.10;99.90;;;;;;4983867;28;20033;-78
2023/01/12 02:31:21;;;;;;;12.88;0.82;;;9.10;99.90;;;;;;4982516;28;20144;-79
2023/01/12 02:34:29;;;;;;;8.82;0.22;;;9.00;99.90;;;;;;4983727;28;20442;-79
2023/01/12 02:37:19;;;;;;;7.82;0.40;;;9.00;99.90;;;;;;4961703;29;20027;-79
2023/01/12 02:40:19;;;;;;;4.30;0.00;;;9.00;99.90;;;;;;4982904;28;20443;-78
2023/01/12 02:42:53;;;;;;;7.93;0.32;;;9.00;99.90;;;;;;4983783;28;20462;-79
2023/01/12 02:45:50;;;;;;;9.48;0.13;;;9.00;99.90;;;;;;4981826;28;20031;-78
2023/01/12 02:48:32;;;;;;;8.85;0.47;;;9.00;99.90;;;;;;4983569;28;20054;-78
2023/01/12 02:51:12;;;;;;;7.07;0.32;;;9.00;99.90;;;;;;4984809;28;20033;-79
2023/01/12 02:53:46;;;;;;;6.60;0.60;;;9.00;99.90;;;;;;4985456;28;20514;-79
2023/01/12 02:56:35;;;;;;;8.13;0.63;;;9.50;99.90;;;;;;4986420;28;20029;-79
2023/01/12 02:59:06;;;;;;;;;;;8.90;99.90;;;;;;4987625;28;20038;-80
2023/01/12 03:01:32;;;;;;;6.95;0.50;;;8.90;99.90;;;;;;4985919;28;19906;-78
2023/01/12 03:04:01;;;;;;;13.30;1.45;;;9.00;99.90;;;;;;4987251;28;20019;-79
2023/01/12 03:06:44;;;;;;;6.03;0.20;;;9.10;99.90;;;;;;4986631;28;20034;-78
2023/01/12 03:09:12;;;;;;;10.88;0.68;;;9.10;99.90;;;;;;4989232;28;20027;-79
2023/01/12 03:11:42;;;;;;;6.03;0.13;;;9.10;99.90;;;;;;4986184;28;20094;-79
2023/01/12 03:14:09;;;;;;;5.05;0.20;;;9.10;99.90;;;;;;4987164;28;20023;-78
2023/01/12 03:16:41;;;;;;;19.73;1.13;;;9.10;99.90;;;;;;5002142;28;20050;-78
2023/01/12 03:19:14;;;;;;;11.25;0.55;;;9.20;99.90;;;;;;4986196;28;20034;-79
2023/01/12 03:21:51;;;;;;;6.93;0.22;;;9.20;99.90;;;;;;4986742;28;20023;-78
2023/01/12 03:24:24;;;;;;;5.53;0.85;;;9.10;99.90;;;;;;4987946;28;20027;-79
2023/01/12 03:26:58;;;;;;;9.60;0.30;;;9.10;99.90;;;;;;4988438;28;20030;-79
2023/01/12 03:29:58;;;;;;;8.00;1.00;;;9.10;99.90;;;;;;4988024;28;20030;-78
2023/01/12 03:32:27;;;;;;;8.77;0.60;;;9.10;99.90;;;;;;4976230;28;20070;-78
2023/01/12 03:34:56;;;;;;;5.43;0.47;;;9.00;99.90;;;;;;4987566;28;20058;-79
2023/01/12 03:37:35;;;;;;;5.50;0.82;;;9.00;99.90;;;;;;4988434;28;20038;-79
2023/01/12 03:40:17;;;;;;;8.93;0.65;;;9.00;99.90;;;;;;4988990;28;20058;-78
2023/01/12 03:42:51;;;;;;;4.75;1.30;;;8.90;99.90;;;;;;4986328;28;20491;-79
2023/01/12 03:45:34;;;;;;;8.55;0.60;;;8.90;99.90;;;;;;4987825;28;20075;-78
2023/01/12 03:48:14;;;;;;;4.22;0.22;;;8.80;99.90;;;;;;4985919;28;20027;-78
2023/01/12 03:50:59;;;;;;;5.72;0.45;;;8.80;99.90;;;;;;4987058;28;20023;-79
2023/01/12 03:53:25;;;;;;;4.65;0.20;;;8.80;99.90;;;;;;5002423;28;20019;-79
2023/01/12 03:55:58;;;;;;;5.40;0.20;;;8.80;99.90;;;;;;4986723;28;20430;-78
2023/01/12 03:58:27;;;;;;;1.85;0.30;;;8.80;99.90;;;;;;4985994;28;20086;-79
2023/01/12 04:00:52;;;;;;;3.30;0.32;;;8.80;99.90;;;;;;4985755;28;20034;-79
2023/01/12 04:03:19;;;;;;;2.35;0.13;;;8.70;99.90;;;;;;4983762;28;20027;-78
2023/01/12 04:05:45;;;;;;;4.32;0.20;;;8.70;99.90;;;;;;4985151;28;20027;-78
2023/01/12 04:08:13;;;;;;;4.30;0.93;;;8.80;99.90;;;;;;4986250;28;20027;-79
2023/01/12 04:10:39;;;;;;;1.75;0.00;;;8.70;99.90;;;;;;4986357;28;20482;-78
2023/01/12 04:13:07;;;;;;;5.80;0.63;;;8.70;99.90;;;;;;4988046;28;20019;-78
2023/01/12 04:15:41;;;;;;;4.83;0.10;;;8.70;99.90;;;;;;4986168;28;20025;-79
2023/01/12 04:18:08;;;;;;;5.47;0.10;;;8.70;99.90;;;;;;4986655;28;20025;-79
2023/01/12 04:20:33;;;;;;;3.22;0.25;;;8.70;99.90;;;;;;4986689;28;20019;-79
2023/01/12 04:22:59;;;;;;;5.72;0.63;;;8.70;99.90;;;;;;4991271;28;20054;-79
2023/01/12 04:25:26;;;;;;;9.15;0.93;;;8.70;99.90;;;;;;4990473;28;20058;-79
2023/01/12 04:28:00;;;;;;;3.20;0.22;;;8.70;99.90;;;;;;4986986;28;20113;-79
2023/01/12 04:30:27;;;;;;;4.93;0.20;;;8.90;99.90;;;;;;4986820;28;20019;-78
2023/01/12 04:32:54;;;;;;;3.58;0.47;;;8.70;99.90;;;;;;4976281;28;20018;-78
2023/01/12 04:35:21;;;;;;;9.38;0.50;;;8.70;99.90;;;;;;4979554;28;20110;-78
2023/01/12 04:37:46;;;;;;;2.25;0.00;;;8.70;99.90;;;;;;4976966;28;20023;-77
2023/01/12 04:40:14;;;;;;;5.47;0.30;;;8.70;99.90;;;;;;4975739;28;20038;-78
2023/01/12 04:43:00;;;;;;;6.38;0.30;;;8.70;99.90;;;;;;4975658;28;20058;-78
2023/01/12 04:45:30;;;;;;;3.50;0.00;;;8.70;99.90;;;;;;4979175;28;20023;-78
2023/01/12 04:47:59;;;;;;;8.30;1.15;;;8.70;99.90;;;;;;4977623;28;20397;-78
2023/01/12 04:50:24;;;;;;;;;;;8.70;99.90;;;;;;4978797;28;20027;-78
2023/01/12 04:52:50;;;;;;;3.30;0.10;;;8.70;99.90;;;;;;4978345;28;19937;-78
2023/01/12 04:55:15;;;;;;;2.63;0.45;;;8.70;99.90;;;;;;4978560;28;20062;-78
2023/01/12 04:57:41;;;;;;;3.15;0.30;;;8.80;99.90;;;;;;4978514;28;20449;-78
2023/01/12 05:00:07;;;;;;;2.28;0.03;;;8.80;99.90;;;;;;4978073;28;20039;-78
2023/01/12 05:02:33;;;;;;;2.75;0.70;;;8.90;99.90;;;;;;4976517;28;20080;-78
2023/01/12 05:04:58;;;;;;;5.53;0.25;;;8.90;99.90;;;;;;4978199;28;20027;-78
2023/01/12 05:07:24;;;;;;;2.60;0.68;;;8.90;99.90;;;;;;4977740;28;20033;-78
2023/01/12 05:12:33;;;;;;;4.88;0.20;;;9.20;99.90;;;;;;4977726;28;20045;-78
2023/01/12 05:14:59;;;;;;;1.50;0.10;;;9.00;99.90;;;;;;4975002;28;20023;-78
2023/01/12 05:17:25;;;;;;;0.35;0.03;;;9.00;99.90;;;;;;4975803;28;20054;-78
2023/01/12 05:19:51;;;;;;;6.75;0.40;;;9.00;99.90;;;;;;4975633;28;20114;-78
2023/01/12 05:22:16;;;;;;;3.53;0.10;;;9.00;99.90;;;;;;4976920;28;20054;-78
2023/01/12 05:24:42;;;;;;;5.25;0.43;;;9.00;99.90;;;;;;4976751;28;20505;-78
2023/01/12 05:27:07;;;;;;;5.68;0.40;;;9.00;99.90;;;;;;4991058;28;20026;-78
2023/01/12 05:29:33;;;;;;;2.80;0.00;;;9.00;99.90;;;;;;4976581;28;20025;-78
2023/01/12 05:31:58;;;;;;;3.00;0.10;;;9.00;99.90;;;;;;4975350;28;20023;-78
2023/01/12 05:34:24;;;;;;;1.52;0.40;;;9.00;99.90;;;;;;4975656;28;20158;-78
2023/01/12 05:36:49;;;;;;;1.25;0.10;;;9.00;99.90;;;;;;4976525;28;20014;-78
2023/01/12 05:39:15;;;;;;;4.68;0.00;;;9.00;99.90;;;;;;4976173;28;20038;-77
2023/01/12 05:43:48;;;;;;;2.85;0.00;;;9.10;99.90;;;;;;4975743;28;20042;-78
2023/01/12 05:44:26;;;;;;;3.95;0.30;;;9.10;99.90;;;;;;4979138;28;20042;-78
2023/01/12 05:46:52;;;;;;;2.08;0.00;;;9.00;99.90;;;;;;4980293;28;20505;-78
2023/01/12 05:49:17;;;;;;;2.17;0.10;;;9.00;99.90;;;;;;4977973;28;20038;-78
2023/01/12 05:51:43;;;;;;;0.68;0.28;;;9.10;99.90;;;;;;4977936;28;20110;-78
2023/01/12 05:54:08;;;;;;;1.25;0.10;;;9.00;99.90;;;;;;4979471;28;20022;-79
2023/01/12 05:56:34;;;;;;;0.52;0.00;;;9.00;99.90;;;;;;4983686;28;20033;-79
2023/01/12 05:59:03;;;;;;;1.45;0.00;;;9.00;99.90;;;;;;4982012;28;20030;-80
2023/01/12 06:01:29;;;;;;;0.47;0.00;;;9.00;99.90;;;;;;4975127;28;20027;-79
2023/01/12 06:03:57;;;;;;;0.90;0.00;;;9.60;99.90;;;;;;4982564;28;20117;-79
2023/01/12 06:06:29;;;;;;;3.20;0.00;;;10.80;99.90;;;;;;4982180;28;20034;-79
2023/01/12 06:08:55;;;;;;;1.40;0.00;;;10.00;99.90;;;;;;4982439;28;20022;-78
2023/01/12 06:14:06;;;;;;;1.10;0.00;;;9.00;99.90;;;;;;4979394;28;20041;-78
2023/01/12 06:16:32;;;;;;;0.20;0.00;;;9.00;99.90;;;;;;4979281;28;20023;-79
2023/01/12 06:18:58;;;;;;;0.65;0.00;;;9.00;99.90;;;;;;4980822;28;20030;-77
2023/01/12 06:21:24;;;;;;;0.52;0.00;;;9.00;99.90;;;;;;4980129;28;20055;-79
2023/01/12 06:23:49;;;;;;;1.08;0.43;;;9.00;99.90;;;;;;4985897;28;20034;-80
2023/01/12 06:26:15;;;;;;;0.15;0.08;;;10.40;99.90;;;;;;4985172;28;20023;-79
2023/01/12 06:28:42;;;;;;;1.55;0.00;;;9.70;99.90;;;;;;4986276;28;20030;-79
2023/01/12 06:31:10;;;;;;;0.35;0.00;;;9.00;99.90;;;;;;4984804;28;20027;-80
2023/01/12 06:33:36;;;;;;;1.83;0.00;;;9.00;99.90;;;;;;4985922;28;20042;-79
2023/01/12 06:36:02;;;;;;;1.45;0.00;;;9.10;99.90;;;;;;4985914;28;20019;-77
2023/01/12 06:38:31;;;;;;;1.92;0.00;;;9.10;99.90;;;;;;4984631;28;20158;-79
2023/01/12 06:42:27;;;;;;;4.28;0.00;;;9.10;99.90;;;;;;4986760;28;20033;-79
2023/01/12 06:43:54;;;;;;;1.75;0.00;;;9.20;99.90;;;;;;4985487;28;20031;-79
2023/01/12 06:46:20;;;;;;;0.20;0.00;;;9.10;99.90;;;;;;4984604;28;20094;-79
2023/01/12 06:48:46;;;;;;;0.20;0.00;;;9.20;99.90;;;;;;4984728;28;20486;-78
2023/01/12 06:51:11;;;;;;;2.53;0.00;;;9.20;99.90;;;;;;5000752;28;20027;-79
2023/01/12 06:53:37;;;;;;;0.05;0.00;;;9.20;99.90;;;;;;4984466;28;20445;-79
2023/01/12 06:56:03;;;;;;;3.00;0.00;;;;;;;;;;4984864;28;20019;-79
2023/01/12 06:58:29;;;;;;;0.85;0.00;;;9.30;99.90;;;;;;4984850;28;20027;-78
2023/01/12 07:01:00;;;;;;;2.30;0.00;;;10.30;99.90;;;;;;4985999;28;20030;-79
2023/01/12 07:03:25;;;;;;;5.15;0.52;;;9.40;99.90;;;;;;4985761;28;20030;-78
2023/01/12 07:05:51;;;;;;;1.52;0.00;;;9.40;99.90;;;;;;4983643;28;20019;-80
2023/01/12 07:08:18;;;;;;;1.35;0.00;;;10.50;99.90;;;;;;4983160;28;20050;-78
2023/01/12 07:10:44;;;;;;;0.52;0.00;;;10.70;99.90;;;;;;4984982;28;20058;-78
2023/01/12 07:13:10;;;;;;;4.55;0.28;;;9.60;99.90;;;;;;4984298;28;20023;-79
2023/01/12 07:15:36;;;;;;;0.85;0.00;;;9.60;99.90;;;;;;4984660;28;20027;-78
2023/01/12 07:18:01;;;;;;;2.75;0.20;;;9.70;99.90;;;;;;4984855;28;20039;-78
2023/01/12 07:20:27;;;;;;;2.22;0.17;;;9.70;99.90;;;;;;4984073;28;20441;-79
2023/01/12 07:22:54;;;;;;;2.28;0.00;;;9.80;99.90;;;;;;4985879;28;20043;-79
2023/01/12 07:25:20;;;;;;;2.88;0.00;;;9.90;99.90;;;;;;4981892;28;20019;-78
2023/01/12 07:27:56;;;;;;;3.40;0.35;;;9.80;99.90;;;;;;4983698;28;20023;-79
2023/01/12 07:30:23;;;;;;;6.40;0.45;;;9.90;99.90;;;;;;4999516;28;20031;-78
2023/01/12 07:32:49;;;;;;;7.63;0.17;;;10.00;99.90;;;;;;4984125;28;20027;-78
2023/01/12 07:35:15;;;;;;;9.25;0.43;;;10.90;99.90;;;;;;4984627;28;20053;-79
2023/01/12 07:37:59;;;;;;;3.88;0.10;;;10.10;99.90;;;;;;4984505;28;20026;-79
2023/01/12 07:40:25;;;;;;;9.45;0.15;;;10.10;99.90;;;;;;4985744;28;20019;-79
2023/01/12 07:43:18;;;;;;;7.68;0.57;;;10.20;99.90;;;;;;5003577;28;20019;-79
2023/01/12 07:45:44;;;;;;;5.22;0.20;;;10.20;99.90;;;;;;4987624;28;20034;-79
2023/01/12 07:48:10;;;;;;;14.13;1.10;;;10.40;99.90;;;;;;4987567;28;20023;-79
2023/01/12 07:50:36;;;;;;;3.90;0.10;;;10.40;99.90;;;;;;4986440;28;20054;-79
2023/01/12 07:53:01;;;;;;;6.53;0.82;;;11.00;99.90;;;;;;4989076;28;20034;-78
2023/01/12 07:55:30;;;;;;;6.63;0.52;;;10.50;99.90;;;;;;4988080;28;20079;-79
2023/01/12 07:58:06;;;;;;;10.02;0.47;;;10.50;99.90;;;;;;4986225;28;20166;-79
2023/01/12 08:00:31;;;;;;;8.02;0.73;;;10.60;99.90;;;;;;4986496;28;20027;-79
2023/01/12 08:03:12;;;;;;;8.20;0.43;;;10.60;99.90;;;;;;4999853;28;20110;-79
2023/01/12 08:05:38;;;;;;;18.63;1.17;;;10.60;99.90;;;;;;4985107;28;20081;-78
2023/01/12 08:08:05;;;;;;;12.38;1.42;;;10.70;99.90;;;;;;4985855;28;20030;-78
2023/01/12 08:10:30;;;;;;;8.27;0.38;;;10.60;99.90;;;;;;4984884;28;20445;-79
2023/01/12 08:12:56;;;;;;;6.03;0.15;;;10.60;99.90;;;;;;4988386;28;20031;-79
2023/01/12 08:15:24;;;;;;;4.65;0.40;;;10.70;99.90;;;;;;4987899;28;20360;-79
2023/01/12 08:17:59;;;;;;;7.88;0.75;;;10.90;99.90;;;;;;4985852;28;20074;-79
2023/01/12 08:20:32;;;;;;;12.43;0.45;;;10.90;99.90;;;;;;4986088;28;20046;-78
2023/01/12 08:23:05;;;;;;;10.98;0.50;;;10.70;99.90;;;;;;4985386;28;20031;-79
2023/01/12 08:25:34;;;;;;;9.70;0.22;;;10.70;99.90;;;;;;4983743;28;20215;-78
2023/01/12 08:28:04;;;;;;;13.77;0.38;;;10.80;99.90;;;;;;4985049;28;20037;-79
2023/01/12 08:30:30;;;;;;;10.25;0.65;;;10.80;99.90;;;;;;4983641;28;20030;-79
2023/01/12 08:32:59;;;;;;;13.70;2.08;;;11.90;99.90;;;;;;4986168;28;20037;-78
2023/01/12 08:35:27;;;;;;;6.07;0.93;;;10.80;99.90;;;;;;4986553;28;20019;-79
2023/01/12 08:37:54;;;;;;;12.18;0.08;;;11.40;99.90;;;;;;4985536;28;20019;-80
2023/01/12 08:40:20;;;;;;;10.05;0.40;;;10.80;99.90;;;;;;4986078;28;20029;-79
2023/01/12 08:42:45;;;;;;;12.30;0.73;;;10.80;99.90;;;;;;4986632;28;20050;-79
2023/01/12 08:45:11;;;;;;;6.22;0.20;;;10.80;99.90;;;;;;4989208;28;20038;-79
2023/01/12 08:47:39;;;;;;;14.95;0.65;;;10.80;99.90;;;;;;4988217;28;20031;-79
2023/01/12 08:50:06;;;;;;;7.00;0.63;;;10.80;99.90;;;;;;4986622;28;20375;-79
2023/01/12 08:52:34;;;;;;;12.65;0.65;;;10.80;99.90;;;;;;4986206;28;20086;-79
2023/01/12 08:54:59;;;;;;;5.47;0.20;;;10.80;99.90;;;;;;4988668;28;20019;-79
2023/01/12 08:57:25;;;;;;;5.68;0.40;;;10.80;99.90;;;;;;4985361;28;20046;-79
2023/01/12 08:59:50;;;;;;;10.85;1.27;;;10.90;99.90;;;;;;4985135;28;20030;-79
2023/01/12 09:02:16;;;;;;;13.27;2.30;;;10.90;99.90;;;;;;4986283;28;20505;-79
2023/01/12 09:04:42;;;;;;;5.10;0.30;;;10.80;99.90;;;;;;4986271;28;20402;-79
2023/01/12 09:07:09;;;;;;;15.18;1.27;;;10.80;99.90;;;;;;4986047;28;20027;-79
2023/01/12 09:09:35;;;;;;;13.88;1.00;;;10.90;99.90;;;;;;5016903;23;20501;-78
2023/01/12 09:12:01;;;;;;;19.08;0.95;;;10.90;99.90;;;;;;5023730;28;20038;-79
2023/01/12 09:14:26;;;;;;;7.45;0.88;;;10.90;99.90;;;;;;5023893;28;20117;-79
2023/01/12 09:16:52;;;;;;;10.77;0.38;;;10.90;99.90;;;;;;5025383;28;20018;-79
2023/01/12 09:19:18;;;;;;;13.15;0.63;;;10.90;99.90;;;;;;5025286;28;20108;-79
2023/01/12 09:21:43;;;;;;;6.53;0.08;;;10.90;99.90;;;;;;5025453;28;20029;-79
2023/01/12 09:24:10;;;;;;;9.82;0.45;;;10.90;99.90;;;;;;5024648;28;20018;-78
2023/01/12 09:26:41;;;;;;;13.52;1.48;;;10.90;99.90;;;;;;5024646;28;20049;-79
2023/01/12 09:29:07;;;;;;;10.63;0.75;;;10.90;99.90;;;;;;5023654;28;20030;-79
2023/01/12 09:31:34;;;;;;;10.68;1.08;;;10.90;99.90;;;;;;5024977;28;20026;-79
2023/01/12 09:34:00;;;;;;;19.20;0.93;;;11.00;99.90;;;;;;5025074;28;20025;-79
2023/01/12 09:36:28;;;;;;;12.23;0.75;;;11.00;99.90;;;;;;5026669;28;20022;-79
2023/01/12 09:38:54;;;;;;;21.27;0.93;;;11.00;99.90;;;;;;5026007;28;20014;-79
2023/01/12 09:47:38;;;;;;;11.18;1.67;;;11.00;99.90;;;;;;5024518;28;20052;-79
2023/01/12 09:50:19;;;;;;;20.20;1.38;;;11.00;99.90;;;;;;5023962;28;20029;-79
2023/01/12 09:52:45;;;;;;;21.02;1.65;;;11.00;99.90;;;;;;5024558;28;20021;-79
2023/01/12 09:55:18;;;;;;;16.05;1.25;;;11.00;99.90;;;;;;5023842;28;20106;-79
2023/01/12 09:57:59;;;;;;;16.80;1.90;;;11.00;99.90;;;;;;5024405;28;20026;-79
2023/01/12 10:00:27;;;;;;;16.45;1.05;;;11.00;99.90;;;;;;5025164;28;20068;-79
2023/01/12 10:03:04;;;;;;;17.95;2.00;;;11.10;99.90;;;;;;5025253;28;20121;-79
2023/01/12 10:05:46;;;;;;;8.50;1.00;;;11.20;99.90;;;;;;5024177;28;20026;-79
2023/01/12 10:08:22;;;;;;;16.42;1.33;;;11.20;99.90;;;;;;5026103;28;20089;-79
2023/01/12 10:11:18;;;;;;;18.98;1.13;;;11.20;99.90;;;;;;5023500;28;20037;-79
2023/01/12 10:14:01;;;;;;;21.15;1.40;;;11.20;99.90;;;;;;5023976;28;20030;-79
2023/01/12 10:16:57;;;;;;;15.23;1.90;;;11.20;99.90;;;;;;5023696;28;20018;-79
2023/01/12 10:19:29;;;;;;;19.45;1.60;;;11.30;99.90;;;;;;5023995;28;20420;-79
2023/01/12 10:21:56;;;;;;;13.43;1.38;;;11.20;99.90;;;;;;5022191;28;20053;-79
2023/01/12 10:24:23;;;;;;;11.85;0.90;;;11.30;99.90;;;;;;5023536;28;20028;-79
2023/01/12 10:27:12;;;;;;;12.20;0.30;;;11.20;99.90;;;;;;5022718;28;20057;-79
2023/01/12 10:29:37;;;;;;;16.08;1.83;;;11.20;99.90;;;;;;5022789;28;20033;-79
2023/01/12 10:32:03;;;;;;;13.18;0.50;;;11.20;99.90;;;;;;5023108;28;20376;-79
2023/01/12 10:34:50;;;;;;;16.25;1.38;;;11.10;99.90;;;;;;5022974;28;20056;-79
2023/01/12 10:37:16;;;;;;;13.63;2.05;;;11.10;99.90;;;;;;5023686;28;20029;-79
2023/01/12 10:39:43;;;;;;;17.38;1.25;;;11.00;99.90;;;;;;5023451;28;20030;-79
2023/01/12 10:45:21;;;;;;;12.18;0.52;;;11.00;99.90;;;;;;5024151;28;20574;-79
2023/01/12 10:47:55;;;;;;;11.52;0.98;;;11.00;99.90;;;;;;5022130;28;20068;-79
2023/01/12 10:50:31;;;;;;;11.25;2.15;;;11.00;99.90;;;;;;5023380;28;20056;-79
2023/01/12 10:53:14;;;;;;;10.52;0.90;;;11.00;99.90;;;;;;5022395;28;20080;-79
2023/01/12 10:55:40;;;;;;;11.73;0.63;;;11.00;99.90;;;;;;5022608;28;20026;-79
2023/01/12 10:58:25;;;;;;;9.00;0.30;;;11.00;99.90;;;;;;5022785;28;20022;-79
2023/01/12 11:00:52;;;;;;;11.30;1.00;;;11.00;99.90;;;;;;5023276;28;20088;-79
2023/01/12 11:03:33;;;;;;;13.52;1.20;;;11.00;99.90;;;;;;5022055;28;20094;-79
2023/01/12 11:06:29;;;;;;;6.47;0.80;;;11.00;99.90;;;;;;5021288;28;20034;-79
2023/01/12 11:08:56;;;;;;;11.88;0.85;;;11.00;99.90;;;;;;5022176;28;20112;-79
2023/01/12 11:11:32;;;;;;;17.17;1.95;;;10.90;99.90;;;;;;4984986;28;1067934;-79
2023/01/12 11:14:03;;;;;;;10.75;1.23;;;10.90;99.90;;;;;;5023126;28;20021;-79
2023/01/12 11:16:42;;;;;;;9.15;0.10;;;10.90;99.90;;;;;;5028540;28;20036;-79
2023/01/12 11:19:08;;;;;;;;;;;14.30;99.90;;;;;;5029636;28;20056;-79
2023/01/12 11:21:38;;;;;;;19.48;1.48;;;11.00;99.90;;;;;;5028308;28;19910;-79
2023/01/12 11:24:17;;;;;;;10.43;0.98;;;11.00;99.90;;;;;;5028021;28;20026;-79
2023/01/12 11:26:59;;;;;;;17.95;3.03;;;11.10;99.90;;;;;;5027981;28;20025;-79
2023/01/12 11:29:47;;;;;;;12.25;1.30;;;11.00;99.90;;;;;;5028115;28;20025;-79
2023/01/12 11:32:26;;;;;;;8.05;1.23;;;11.00;99.90;;;;;;5030842;28;20030;-79
2023/01/12 11:35:00;;;;;;;;;;;11.00;99.90;;;;;;5029714;28;20026;-79
2023/01/12 11:37:26;;;;;;;12.45;1.00;;;11.00;99.90;;;;;;5030473;28;19912;-79
2023/01/12 11:40:03;;;;;;;16.65;1.85;;;11.00;99.90;;;;;;5029282;28;20157;-79
2023/01/12 11:45:24;;;;;;;21.33;0.73;;;11.00;99.90;;;;;;5029083;28;20037;-79
2023/01/12 11:47:55;;;;;;;6.95;0.43;;;11.00;99.90;;;;;;5027433;28;20022;-79
2023/01/12 11:50:28;;;;;;;12.75;0.88;;;11.00;99.90;;;;;;5027938;28;20026;-79
2023/01/12 11:52:56;;;;;;;17.05;1.25;;;11.00;99.90;;;;;;5027484;28;20044;-79
2023/01/12 11:55:47;;;;;;;15.00;1.45;;;11.00;99.90;;;;;;5027130;28;20061;-79
2023/01/12 11:58:40;;;;;;;11.55;1.70;;;11.00;99.90;;;;;;5027459;28;20022;-79
2023/01/12 12:01:19;;;;;;;7.05;0.52;;;11.00;99.90;;;;;;5026903;28;20045;-79
2023/01/12 12:04:12;;;;;;;6.82;0.25;;;10.90;99.90;;;;;;5027473;28;20066;-79
2023/01/12 12:06:58;;;;;;;10.18;0.13;;;10.90;99.90;;;;;;5027749;28;20026;-79
2023/01/12 12:09:24;;;;;;;4.68;0.40;;;10.90;99.90;;;;;;5028463;28;20030;-79
2023/01/12 12:12:13;;;;;;;13.35;1.05;;;10.90;99.90;;;;;;5026334;28;20034;-79
2023/01/12 12:15:02;;;;;;;7.10;0.57;;;10.90;99.90;;;;;;5026694;28;20022;-79
2023/01/12 12:17:57;;;;;;;;;;;10.90;99.90;;;;;;5029585;28;20366;-79
2023/01/12 12:20:45;;;;;;;17.00;2.03;;;10.90;99.90;;;;;;5018866;28;19945;-79
2023/01/12 12:23:30;;;;;;;9.50;1.83;;;10.90;99.90;;;;;;5028777;28;20026;-79
2023/01/12 12:26:08;;;;;;;14.23;2.13;;;10.90;99.90;;;;;;5028872;28;20056;-79
2023/01/12 12:29:01;;;;;;;14.55;1.83;;;10.90;99.90;;;;;;5028936;28;20029;-79
2023/01/12 12:31:41;;;;;;;11.77;0.85;;;10.90;99.90;;;;;;5028711;28;20020;-79
2023/01/12 12:34:07;;;;;;;10.45;1.27;;;10.90;99.90;;;;;;5026804;28;20029;-79
2023/01/12 12:37:06;;;;;;;18.55;0.98;;;10.90;99.90;;;;;;5026011;28;20026;-79
2023/01/12 12:39:43;;;;;;;12.85;0.88;;;10.90;99.90;;;;;;5026408;28;20021;-79
2023/01/12 12:45:16;;;;;;;9.23;1.02;;;10.90;99.90;;;;;;5028383;28;20057;-79
2023/01/12 12:48:06;;;;;;;10.32;1.15;;;10.90;99.90;;;;;;5026386;28;20102;-79
2023/01/12 12:50:50;;;;;;;15.35;0.70;;;10.90;99.90;;;;;;5027378;28;20022;-79
2023/01/12 12:53:25;;;;;;;10.23;0.40;;;10.90;99.90;;;;;;5027883;28;20033;-79
2023/01/12 12:55:53;;;;;;;3.78;0.10;;;10.80;99.90;;;;;;5028318;28;20026;-79
2023/01/12 12:58:21;;;;;;;6.63;0.05;;;10.90;99.90;;;;;;5029292;28;20022;-79
2023/01/12 13:00:49;;;;;;;1.60;0.45;;;10.90;99.90;;;;;;5028760;28;20472;-80
2023/01/12 13:03:39;;;;;;;2.90;0.35;;;10.80;99.90;;;;;;5028275;28;20022;-79
2023/01/12 13:06:25;;;;;;;3.90;0.10;;;10.80;99.90;;;;;;5028200;28;20385;-80
2023/01/12 13:08:53;;;;;;;4.38;0.82;;;10.80;99.90;;;;;;5028228;28;20030;-80
2023/01/12 13:11:20;;;;;;;6.25;0.35;;;10.80;99.90;;;;;;5029219;28;20033;-80
2023/01/12 13:14:15;;;;;;;5.10;0.60;;;10.90;99.90;;;;;;5028443;28;20029;-79
2023/01/12 13:16:47;;;;;;;2.70;0.17;;;10.90;99.90;;;;;;5027496;28;20040;-79
2023/01/12 13:19:31;;;;;;;0.73;0.00;;;10.90;99.90;;;;;;5029152;28;20032;-79
2023/01/12 13:21:58;;;;;;;0.77;0.00;;;10.90;99.90;;;;;;5029267;28;20049;-79
2023/01/12 13:24:39;;;;;;;0.75;0.00;;;10.80;99.90;;;;;;5029191;28;20085;-79
2023/01/12 13:27:43;;;;;;;0.30;0.00;;;10.90;99.90;;;;;;5027693;28;20052;-79
2023/01/12 13:30:22;;;;;;;0.20;0.00;;;10.80;99.90;;;;;;5027309;28;20026;-79
2023/01/12 13:32:54;;;;;;;0.00;0.00;;;10.80;99.90;;;;;;5026650;28;20026;-79
2023/01/12 13:35:34;;;;;;;0.38;0.00;;;10.80;99.90;;;;;;5027052;28;20029;-79
2023/01/12 13:38:13;;;;;;;0.00;0.00;;;10.80;99.90;;;;;;5027096;28;20420;-79
2023/01/12 13:40:39;;;;;;;3.78;0.10;;;10.80;99.90;;;;;;5025614;28;20070;-79
2023/01/12 13:43:18;;;;;;;0.68;0.00;;;10.80;99.90;;;;;;5026013;28;20022;-79
2023/01/12 13:45:52;;;;;;;1.15;0.00;;;10.80;99.90;;;;;;5028625;28;20032;-79
2023/01/12 13:48:19;;;;;;;0.13;0.00;;;10.80;99.90;;;;;;5026146;28;20093;-79